Time;durP1;ratioP1;P1;durP2;ratioP2;P2;SDS_P1;SDS_P2;PMS_P1;PMS_P2;Temp;Humidity;BMP_temperature;BMP_pressure;BME280_temperature;BME280_humidity;BME280_pressure;Samples;Min_cycle;Max_cycle;Signal;HPM_P1;HPM_P2
2022/12/25 05:22:40;;;;;;;1.70;1.40;;;;;;;7.44;100.00;100239.91;5088749;28;20328;-67
2022/12/25 05:25:06;;;;;;;6.03;2.47;;;;;;;7.41;100.00;100235.72;5079170;28;20028;-68
2022/12/25 05:27:32;;;;;;;3.38;2.25;;;;;;;7.43;100.00;100228.44;5057521;28;20128;-68
2022/12/25 05:29:57;;;;;;;4.28;2.65;;;;;;;7.44;100.00;100232.78;5054581;28;20041;-68
2022/12/25 05:32:22;;;;;;;4.75;2.72;;;;;;;7.49;100.00;100227.00;5049248;28;20048;-68
2022/12/25 05:34:48;;;;;;;3.90;2.30;;;;;;;7.47;100.00;100227.16;5049195;28;20037;-67
2022/12/25 05:37:13;;;;;;;4.97;1.65;;;;;;;7.52;100.00;100224.06;5049119;28;20485;-68
2022/12/25 05:39:38;;;;;;;7.68;2.83;;;;;;;7.51;100.00;100219.75;5049750;28;20040;-67
2022/12/25 05:42:04;;;;;;;4.18;2.22;;;;;;;7.49;100.00;100216.41;5049019;28;20037;-68
2022/12/25 05:44:29;;;;;;;4.78;2.47;;;;;;;7.43;100.00;100209.91;5049233;28;20045;-67
2022/12/25 05:46:55;;;;;;;2.50;1.77;;;;;;;7.37;100.00;100212.31;5048233;28;20065;-66
2022/12/25 05:49:20;;;;;;;2.80;2.33;;;;;;;7.34;100.00;100214.31;5048064;28;20469;-67
2022/12/25 05:51:45;;;;;;;3.75;1.90;;;;;;;7.34;100.00;100211.66;5048260;28;20041;-67
2022/12/25 05:54:11;;;;;;;5.13;2.25;;;;;;;7.30;100.00;100215.63;5048254;28;20505;-67
2022/12/25 05:56:37;;;;;;;3.05;1.77;;;;;;;7.34;100.00;100213.47;5048355;28;20033;-67
2022/12/25 05:59:02;;;;;;;3.22;2.15;;;;;;;7.35;100.00;100210.66;5047928;28;20107;-67
2022/12/25 06:01:28;;;;;;;2.95;1.67;;;;;;;7.37;100.00;100214.97;5048252;28;20045;-67
2022/12/25 06:03:53;;;;;;;3.70;2.30;;;;;;;7.38;100.00;100203.41;5048314;28;20087;-67
2022/12/25 06:06:19;;;;;;;1.88;1.75;;;;;;;7.38;100.00;100206.06;5048423;28;20167;-67
2022/12/25 06:08:44;;;;;;;2.92;1.77;;;;;;;7.40;100.00;100201.44;5048430;28;20072;-68
2022/12/25 06:11:12;;;;;;;6.57;1.92;;;;;;;7.43;100.00;100201.13;5049038;28;20045;-68
2022/12/25 06:13:37;;;;;;;1.98;1.80;;;;;;;7.44;100.00;100200.97;5048421;28;20041;-67
2022/12/25 06:16:05;;;;;;;2.55;1.85;;;;;;;7.40;100.00;100196.13;5046911;28;20087;-68
2022/12/25 06:18:30;;;;;;;2.85;1.92;;;;;;;7.46;100.00;100198.19;5047802;28;20136;-68
2022/12/25 06:20:56;;;;;;;3.08;2.00;;;;;;;7.47;100.00;100198.00;5048256;28;20061;-67
2022/12/25 06:23:21;;;;;;;2.17;1.58;;;;;;;7.45;100.00;100189.41;5048698;28;20127;-67
2022/12/25 06:25:46;;;;;;;3.00;1.83;;;;;;;7.47;100.00;100187.41;5048441;28;20095;-67
2022/12/25 06:28:12;;;;;;;1.73;1.50;;;;;;;7.45;100.00;100189.41;5047881;28;20106;-67
2022/12/25 06:30:37;;;;;;;2.88;1.90;;;;;;;7.45;100.00;100188.56;5047882;28;20488;-67
2022/12/25 06:33:03;;;;;;;2.88;1.70;;;;;;;7.47;100.00;100181.28;5039605;28;20091;-67
2022/12/25 06:35:28;;;;;;;2.92;2.00;;;;;;;7.44;100.00;100189.56;5034533;28;20561;-67
2022/12/25 06:37:53;;;;;;;2.22;1.73;;;;;;;7.50;100.00;100191.59;5034584;28;20037;-68
2022/12/25 06:40:19;;;;;;;2.88;2.00;;;;;;;7.53;100.00;100193.91;5034569;28;20398;-68
2022/12/25 06:42:44;;;;;;;1.90;1.23;;;;;;;7.60;100.00;100198.44;5034279;28;20065;-68
2022/12/25 06:45:10;;;;;;;2.20;1.42;;;;;;;7.66;100.00;100196.16;5034483;28;20554;-68
2022/12/25 06:47:36;;;;;;;2.50;1.80;;;;;;;7.68;100.00;100195.00;5033777;28;20056;-67
2022/12/25 06:50:02;;;;;;;1.73;1.45;;;;;;;7.68;100.00;100195.00;5034097;28;20037;-68
2022/12/25 06:52:31;;;;;;;2.58;1.60;;;;;;;7.68;100.00;100192.34;5034279;28;20044;-68
2022/12/25 06:54:56;;;;;;;2.30;1.58;;;;;;;7.70;100.00;100200.19;5036223;28;20186;-68
2022/12/25 06:57:21;;;;;;;2.13;1.45;;;;;;;7.75;100.00;100198.69;5034813;28;20065;-67
2022/12/25 06:59:47;;;;;;;1.77;1.40;;;;;;;7.78;100.00;100206.34;5034253;28;20072;-67
2022/12/25 07:02:18;;;;;;;3.38;2.30;;;;;;;7.75;100.00;100211.94;5034547;28;20093;-66
2022/12/25 07:04:45;;;;;;;4.85;1.80;;;;;;;7.75;100.00;100213.78;5033777;28;20391;-67
2022/12/25 07:07:11;;;;;;;2.90;1.95;;;;;;;7.74;100.00;100209.47;5033450;28;20510;-67
2022/12/25 07:09:41;;;;;;;5.93;2.10;;;;;;;7.75;100.00;100201.34;5033955;28;20418;-67
2022/12/25 07:12:12;;;;;;;3.30;1.60;;;;;;;7.74;100.00;100204.16;5033672;28;20034;-67
2022/12/25 07:14:38;;;;;;;5.00;2.25;;;;;;;7.73;100.00;100187.41;5033761;28;20116;-67
2022/12/25 07:17:03;;;;;;;6.50;3.10;;;;;;;7.76;100.00;100187.13;5033341;28;20181;-67
2022/12/25 07:19:29;;;;;;;3.92;1.75;;;;;;;7.80;100.00;100183.16;5033500;28;20500;-67
2022/12/25 07:21:54;;;;;;;5.03;2.53;;;;;;;7.80;100.00;100177.03;5033485;28;20042;-67
2022/12/25 07:24:21;;;;;;;4.00;2.13;;;;;;;7.81;100.00;100168.91;5033673;28;20052;-67
2022/12/25 07:26:46;;;;;;;3.90;2.05;;;;;;;7.81;100.00;100170.72;5033385;28;20445;-66
2022/12/25 07:29:12;;;;;;;2.85;2.13;;;;;;;7.81;100.00;100163.59;5033200;28;20045;-67
2022/12/25 07:31:37;;;;;;;4.82;2.20;;;;;;;7.81;100.00;100160.94;5033148;28;20083;-67
2022/12/25 07:34:02;;;;;;;3.38;2.10;;;;;;;7.80;100.00;100171.72;5033368;28;20494;-67
2022/12/25 07:36:29;;;;;;;2.80;1.67;;;;;;;7.80;100.00;100161.09;5033339;28;20033;-67
2022/12/25 07:38:55;;;;;;;1.83;1.33;;;;;;;7.77;100.00;100156.97;5033032;28;20092;-67
2022/12/25 07:41:20;;;;;;;2.75;1.50;;;;;;;7.79;100.00;100164.75;5033043;28;20050;-67
2022/12/25 07:43:51;;;;;;;2.72;1.38;;;;;;;7.82;100.00;100167.94;5032998;28;20052;-67
2022/12/25 07:46:17;;;;;;;2.53;1.45;;;;;;;7.83;100.00;100172.25;5033220;28;20037;-67
2022/12/25 07:48:43;;;;;;;2.47;1.55;;;;;;;7.84;100.00;100187.16;5032962;28;20502;-68
2022/12/25 07:51:11;;;;;;;2.67;1.80;;;;;;;7.83;100.00;100185.50;5033723;28;20124;-68
2022/12/25 07:53:37;;;;;;;2.05;1.42;;;;;;;7.82;100.00;100189.16;5033981;28;20064;-67
2022/12/25 07:56:05;;;;;;;2.38;1.73;;;;;;;7.85;100.00;100199.44;5033329;28;20049;-67
2022/12/25 07:58:32;;;;;;;2.03;1.65;;;;;;;7.83;100.00;100204.06;5032436;28;20033;-67
2022/12/25 08:01:13;;;;;;;3.05;1.60;;;;;;;7.83;100.00;100200.59;5032689;28;20042;-67
2022/12/25 08:03:38;;;;;;;4.97;2.47;;;;;;;7.83;100.00;100200.59;5032864;28;20037;-67
2022/12/25 08:06:06;;;;;;;2.33;1.63;;;;;;;7.76;100.00;100211.00;5032754;28;20403;-67
2022/12/25 08:08:32;;;;;;;4.93;2.65;;;;;;;7.80;100.00;100206.19;5032380;28;20037;-67
2022/12/25 08:10:58;;;;;;;2.78;1.70;;;;;;;7.86;100.00;100208.22;5032538;28;20413;-69
2022/12/25 08:13:23;;;;;;;4.68;1.80;;;;;;;7.86;100.00;100209.03;5032406;28;20546;-69
2022/12/25 08:15:49;;;;;;;2.63;1.80;;;;;;;7.89;100.00;100208.75;5032287;28;20057;-69
2022/12/25 08:18:14;;;;;;;4.18;2.00;;;;;;;7.92;100.00;100204.13;5030780;28;20689;-69
2022/12/25 08:20:40;;;;;;;4.32;2.47;;;;;;;7.98;100.00;100209.63;5032158;28;20068;-69
2022/12/25 08:23:05;;;;;;;8.18;4.07;;;;;;;8.04;100.00;100208.16;5032191;28;20116;-69
2022/12/25 08:25:31;;;;;;;3.67;2.13;;;;;;;8.06;100.00;100212.31;5032146;28;20038;-70
2022/12/25 08:27:58;;;;;;;2.92;1.75;;;;;;;8.07;100.00;100207.84;5031788;28;20075;-69
2022/12/25 08:30:24;;;;;;;3.58;2.20;;;;;;;8.12;100.00;100214.34;5032249;28;20147;-70
2022/12/25 08:32:49;;;;;;;2.95;2.63;;;;;;;8.16;100.00;100204.25;5029816;28;20416;-70
2022/12/25 08:35:15;;;;;;;5.30;3.75;;;;;;;8.23;100.00;100194.66;5025551;28;20040;-69
2022/12/25 08:37:40;;;;;;;4.45;3.40;;;;;;;8.29;100.00;100178.09;5030901;28;20045;-70
2022/12/25 08:40:06;;;;;;;4.70;3.38;;;;;;;8.41;100.00;100168.91;5031759;28;20044;-70
2022/12/25 08:42:31;;;;;;;4.53;2.70;;;;;;;8.45;100.00;100150.81;5031773;28;20402;-70
2022/12/25 08:44:57;;;;;;;4.10;2.60;;;;;;;8.49;100.00;100138.88;5031569;28;20040;-70
2022/12/25 08:47:22;;;;;;;4.13;2.15;;;;;;;8.50;100.00;100143.19;5030776;28;20047;-70
2022/12/25 08:49:48;;;;;;;2.75;2.35;;;;;;;8.55;100.00;100150.69;5031557;28;20116;-69
2022/12/25 08:52:14;;;;;;;3.65;1.80;;;;;;;8.66;100.00;100163.63;5031435;28;20503;-69
2022/12/25 08:54:39;;;;;;;2.50;1.65;;;;;;;8.76;100.00;100156.34;5031349;28;20071;-70
2022/12/25 08:57:05;;;;;;;3.33;2.05;;;;;;;8.90;100.00;100152.22;5030725;28;20057;-70
2022/12/25 08:59:30;;;;;;;2.85;1.92;;;;;;;9.02;100.00;100163.34;5030995;28;20116;-70
2022/12/25 09:01:55;;;;;;;2.75;1.60;;;;;;;9.12;100.00;100156.03;5030242;28;20068;-70
2022/12/25 09:04:21;;;;;;;2.25;1.48;;;;;;;9.28;100.00;100152.56;5031346;28;20056;-70
2022/12/25 09:06:46;;;;;;;2.90;2.25;;;;;;;9.51;100.00;100170.31;5031094;28;20053;-70
2022/12/25 09:09:12;;;;;;;2.85;2.00;;;;;;;9.76;100.00;100171.09;5030610;28;20128;-70
2022/12/25 09:11:37;;;;;;;4.97;2.63;;;;;;;9.98;100.00;100182.88;5031232;28;20436;-70
2022/12/25 09:14:03;;;;;;;4.63;2.20;;;;;;;10.30;100.00;100178.44;5031105;28;20045;-70
2022/12/25 09:16:28;;;;;;;3.33;2.00;;;;;;;10.64;100.00;100179.97;5031232;28;20045;-70
2022/12/25 09:18:55;;;;;;;3.65;2.28;;;;;;;10.79;100.00;100196.84;5030404;28;20037;-70
2022/12/25 09:21:21;;;;;;;3.25;2.08;;;;;;;10.95;100.00;100191.41;5031158;28;20558;-70
2022/12/25 09:23:46;;;;;;;2.92;1.63;;;;;;;11.11;100.00;100199.28;5030949;28;20041;-70
2022/12/25 09:26:13;;;;;;;1.92;1.58;;;;;;;11.39;100.00;100209.41;5031086;28;20037;-70
2022/12/25 09:28:39;;;;;;;1.95;1.50;;;;;;;11.48;100.00;100210.19;5030273;28;20053;-71
2022/12/25 09:31:05;;;;;;;2.08;1.70;;;;;;;11.58;100.00;100203.56;5031030;28;20041;-70
2022/12/25 09:33:30;;;;;;;2.13;1.45;;;;;;;11.57;100.00;100206.44;5030954;28;20065;-70
2022/12/25 09:35:58;;;;;;;5.13;1.70;;;;;;;11.51;100.00;100197.31;5030721;28;20041;-69
2022/12/25 09:38:24;;;;;;;2.15;1.85;;;;;;;11.51;100.00;100194.63;5030261;28;20045;-70
2022/12/25 09:41:04;;;;;;;1.70;1.38;;;;;;;11.46;100.00;100194.34;5031121;28;20032;-70
2022/12/25 09:43:36;;;;;;;2.72;1.92;;;;;;;11.41;100.00;100186.06;5031220;28;20045;-70
2022/12/25 09:46:03;;;;;;;1.52;1.23;;;;;;;11.56;100.00;100184.25;5031077;28;20060;-70
2022/12/25 09:48:32;;;;;;;2.42;1.75;;;;;;;11.87;99.75;100172.66;5030567;28;20022;-71
2022/12/25 09:51:08;;;;;;;4.78;1.85;;;;;;;12.12;98.44;100170.53;5031036;28;20030;-71
2022/12/25 09:53:48;;;;;;;1.75;1.38;;;;;;;12.48;95.73;100168.72;5031034;28;20049;-70
2022/12/25 09:56:25;;;;;;;3.83;1.48;;;;;;;12.56;92.43;100170.47;5030928;28;20040;-70
2022/12/25 09:58:52;;;;;;;5.10;2.08;;;;;;;12.96;90.39;100165.53;5030725;28;20037;-71
2022/12/25 10:01:26;;;;;;;3.30;1.83;;;;;;;13.30;89.18;100163.03;5030990;28;20037;-70
2022/12/25 10:04:03;;;;;;;4.20;2.03;;;;;;;13.83;86.24;100162.59;5031058;28;20071;-70
2022/12/25 10:06:38;;;;;;;2.72;1.77;;;;;;;14.17;83.32;100161.75;5030885;28;20048;-69
2022/12/25 10:09:19;;;;;;;2.67;1.67;;;;;;;14.73;80.61;100158.88;5033664;28;20040;-68
2022/12/25 10:12:16;;;;;;;1.38;1.02;;;;;;;14.89;78.29;100155.03;5034604;28;20128;-69
2022/12/25 10:14:56;;;;;;;3.15;2.05;;;;;;;14.70;77.96;100153.94;5034640;28;20487;-69
2022/12/25 10:17:33;;;;;;;2.75;1.73;;;;;;;14.65;79.47;100149.19;5032961;28;20038;-70
2022/12/25 10:20:29;;;;;;;3.63;1.60;;;;;;;14.82;77.97;100146.16;5034711;28;20038;-69
2022/12/25 10:22:59;;;;;;;3.70;1.83;;;;;;;14.72;79.10;100149.19;5034497;28;20355;-70
2022/12/25 10:25:24;;;;;;;3.60;2.05;;;;;;;14.70;78.34;100147.75;5034207;28;20037;-70
2022/12/25 10:27:57;;;;;;;2.95;1.48;;;;;;;14.73;79.23;100136.63;5033939;28;20056;-69
2022/12/25 10:30:25;;;;;;;2.50;1.83;;;;;;;15.18;78.28;100129.66;5034155;28;20092;-70
2022/12/25 10:32:51;;;;;;;2.90;1.50;;;;;;;15.57;77.04;100122.63;5034337;28;20041;-69
2022/12/25 10:35:20;;;;;;;4.20;1.88;;;;;;;16.15;71.48;100120.03;5034200;28;20120;-70
2022/12/25 10:37:59;;;;;;;4.05;1.92;;;;;;;17.00;68.85;100124.16;5034002;28;20046;-69
2022/12/25 10:40:50;;;;;;;3.58;1.77;;;;;;;17.25;66.02;100117.97;5033958;28;20072;-69
2022/12/25 10:43:23;;;;;;;3.10;1.55;;;;;;;17.06;65.25;100120.59;5034152;28;20033;-70
2022/12/25 10:45:48;;;;;;;2.03;1.50;;;;;;;16.96;66.95;100122.94;5032872;28;20033;-70
2022/12/25 10:48:25;;;;;;;5.18;1.70;;;;;;;16.91;66.81;100113.88;5033686;28;20352;-69
2022/12/25 10:50:51;;;;;;;5.10;1.92;;;;;;;17.13;66.12;100111.63;5033842;28;20038;-69
2022/12/25 10:53:21;;;;;;;4.43;2.10;;;;;;;16.70;68.04;100113.19;5034014;28;20405;-69
2022/12/25 10:55:54;;;;;;;3.65;2.13;;;;;;;16.64;69.37;100114.03;5033739;28;20458;-69
2022/12/25 10:58:20;;;;;;;4.22;1.67;;;;;;;16.31;69.47;100106.13;5033456;28;20128;-70
2022/12/25 11:00:52;;;;;;;2.33;1.63;;;;;;;15.95;70.33;100107.50;5033679;28;20076;-69
2022/12/25 11:03:23;;;;;;;4.18;2.13;;;;;;;15.90;72.18;100106.47;5033682;28;20116;-70
2022/12/25 11:05:50;;;;;;;3.92;1.92;;;;;;;15.85;73.42;100101.75;5033693;28;20102;-70
2022/12/25 11:08:21;;;;;;;6.45;2.00;;;;;;;16.03;72.47;100095.69;5032064;28;20049;-70
2022/12/25 11:11:05;;;;;;;7.43;2.15;;;;;;;15.86;72.42;100092.66;5033569;28;20482;-69
2022/12/25 11:13:38;;;;;;;9.13;3.20;;;;;;;15.85;72.59;100093.69;5033679;28;20458;-70
2022/12/25 11:16:27;;;;;;;14.60;6.38;;;;;;;15.40;74.58;100074.75;5033401;28;20037;-69
2022/12/25 11:18:53;;;;;;;6.97;2.83;;;;;;;15.25;77.46;100071.47;5020289;28;20459;-69
2022/12/25 11:21:28;;;;;;;3.88;1.98;;;;;;;14.90;78.87;100062.81;5034146;28;20133;-69
2022/12/25 11:24:05;;;;;;;4.03;2.40;;;;;;;14.40;81.19;100062.28;5034009;28;20038;-69
2022/12/25 11:26:45;;;;;;;7.40;2.47;;;;;;;14.59;81.95;100048.13;5033680;28;20041;-69
2022/12/25 11:29:40;;;;;;;4.22;2.25;;;;;;;14.74;81.47;100047.97;5032967;28;20288;-69
2022/12/25 11:32:15;;;;;;;2.70;2.00;;;;;;;14.88;81.15;100041.56;5033681;28;20033;-70
2022/12/25 11:34:45;;;;;;;5.20;2.55;;;;;;;14.75;80.37;100041.56;5033051;28;20479;-70
2022/12/25 11:37:15;;;;;;;4.80;2.10;;;;;;;14.80;81.42;100044.47;5032620;28;20044;-69
2022/12/25 11:39:41;;;;;;;4.07;1.80;;;;;;;15.00;78.63;100039.09;5032890;28;20045;-70
2022/12/25 11:42:17;;;;;;;4.88;2.13;;;;;;;15.23;77.53;100040.50;5032866;28;20495;-70
2022/12/25 11:44:51;;;;;;;4.78;2.30;;;;;;;14.95;78.34;100035.38;5032964;28;20133;-70
2022/12/25 11:47:31;;;;;;;3.20;1.98;;;;;;;15.27;77.72;100036.38;5032508;28;20395;-70
2022/12/25 11:50:01;;;;;;;6.22;2.22;;;;;;;15.55;76.13;100039.63;5031711;28;20399;-70
2022/12/25 11:52:32;;;;;;;3.22;2.30;;;;;;;15.46;75.96;100036.34;5032699;28;20061;-70
2022/12/25 11:55:21;;;;;;;6.18;2.50;;;;;;;15.57;75.54;100031.34;5032896;28;20144;-70
2022/12/25 11:57:53;;;;;;;4.35;2.35;;;;;;;16.04;74.89;100015.91;5032628;28;20450;-69
2022/12/25 12:00:19;;;;;;;3.38;2.10;;;;;;;16.73;71.76;100015.09;5032774;28;20103;-69
2022/12/25 12:02:53;;;;;;;4.55;2.55;;;;;;;17.72;67.51;100010.63;5032670;28;20064;-70
2022/12/25 12:05:24;;;;;;;3.92;2.28;;;;;;;18.75;62.69;100006.94;5032443;28;20044;-70
2022/12/25 12:08:01;;;;;;;3.72;2.15;;;;;;;18.96;59.97;99991.00;5032241;28;20079;-70
2022/12/25 12:10:39;;;;;;;4.22;2.08;;;;;;;19.33;56.90;100000.75;5032459;28;20052;-70
2022/12/25 12:13:23;;;;;;;2.83;1.55;;;;;;;19.94;55.43;99989.34;5032477;28;20041;-70
2022/12/25 12:15:49;;;;;;;4.15;1.90;;;;;;;20.37;54.08;99996.09;5032399;28;20029;-70
2022/12/25 12:18:31;;;;;;;2.95;1.35;;;;;;;20.23;54.65;99992.06;5032093;28;20021;-70
2022/12/25 12:21:19;;;;;;;2.30;1.33;;;;;;;20.46;53.20;99993.84;5031050;28;20037;-70
2022/12/25 12:24:09;;;;;;;2.72;1.35;;;;;;;19.68;55.22;100001.53;5032565;28;20414;-70
2022/12/25 12:26:39;;;;;;;4.93;1.85;;;;;;;20.11;53.94;100011.03;5032196;28;20040;-71
2022/12/25 12:29:20;;;;;;;2.95;1.70;;;;;;;20.41;54.77;100016.22;5031900;28;20059;-71
2022/12/25 12:31:48;;;;;;;3.28;1.48;;;;;;;19.83;54.98;100013.72;5031401;28;20107;-70
2022/12/25 12:34:24;;;;;;;2.85;1.60;;;;;;;19.45;56.11;100004.25;5031982;28;20040;-70
2022/12/25 12:36:56;;;;;;;2.75;1.98;;;;;;;18.84;58.67;100009.06;5031739;28;20083;-70
2022/12/25 12:39:32;;;;;;;2.92;1.63;;;;;;;18.38;62.30;100018.66;5031842;28;20054;-70
2022/12/25 12:41:57;;;;;;;6.85;2.20;;;;;;;19.05;59.21;100015.78;5031756;28;20104;-70
2022/12/25 12:44:25;;;;;;;2.97;2.08;;;;;;;18.82;59.71;100013.06;5032114;28;20029;-54
2022/12/25 12:46:54;;;;;;;3.38;2.03;;;;;;;18.52;61.13;100007.69;5031943;28;20042;-56
2022/12/25 12:49:23;;;;;;;2.22;1.40;;;;;;;18.25;61.14;99996.47;5031655;28;20562;-70
2022/12/25 12:51:49;;;;;;;2.90;1.40;;;;;;;18.15;61.89;99986.25;5031693;28;20041;-70
2022/12/25 12:54:23;;;;;;;1.85;1.23;;;;;;;18.61;59.93;99968.53;5031799;28;20068;-69
2022/12/25 12:56:59;;;;;;;3.40;1.70;;;;;;;17.99;64.33;99973.41;5031667;28;20044;-70
2022/12/25 12:59:32;;;;;;;2.83;1.60;;;;;;;18.57;61.36;99967.34;5031421;28;20037;-70
2022/12/25 13:02:31;;;;;;;2.38;1.40;;;;;;;18.27;62.96;99978.22;5031587;28;20033;-70
2022/12/25 13:05:02;;;;;;;4.60;1.38;;;;;;;18.09;64.30;99981.78;5031574;28;20037;-70
2022/12/25 13:08:04;;;;;;;3.33;1.30;;;;;;;18.50;61.57;99972.84;5031192;28;20052;-70
2022/12/25 13:10:34;;;;;;;4.15;1.83;;;;;;;18.27;61.66;99984.41;5031411;28;20626;-70
2022/12/25 13:13:11;;;;;;;3.85;1.77;;;;;;;18.21;64.27;99987.22;5031564;28;20034;-70
2022/12/25 13:15:37;;;;;;;3.78;1.88;;;;;;;17.66;65.30;99987.25;5031365;28;20128;-70
2022/12/25 13:18:06;;;;;;;3.13;1.77;;;;;;;17.39;66.37;99990.25;5031164;28;20125;-70
2022/12/25 13:20:40;;;;;;;2.72;1.58;;;;;;;17.01;68.32;100004.72;5031207;28;20479;-71
2022/12/25 13:23:33;;;;;;;2.83;1.27;;;;;;;16.76;71.41;100007.44;5031355;28;20037;-70
2022/12/25 13:26:11;;;;;;;3.15;1.77;;;;;;;16.83;72.09;99999.31;5027532;28;20049;-70
2022/12/25 13:28:36;;;;;;;3.13;1.70;;;;;;;16.52;73.25;99987.50;5031086;28;20084;-70
2022/12/25 13:31:21;;;;;;;4.32;1.90;;;;;;;16.44;74.75;99985.09;5031130;28;20081;-70
2022/12/25 13:33:57;;;;;;;3.60;1.50;;;;;;;16.06;75.86;99989.69;5031310;28;20041;-70
2022/12/25 13:36:24;;;;;;;4.03;2.00;;;;;;;16.01;77.06;99980.38;5031052;28;20147;-70
2022/12/25 13:38:52;;;;;;;4.25;2.13;;;;;;;15.88;76.75;99974.25;5030868;28;20029;-70
2022/12/25 13:44:21;;;;;;;2.95;1.63;;;;;;;15.65;77.72;99967.56;5034474;28;20037;-69
2022/12/25 13:46:46;;;;;;;5.18;1.98;;;;;;;15.73;76.74;99971.88;5035155;28;20435;-69
2022/12/25 13:49:15;;;;;;;2.70;1.70;;;;;;;15.86;78.05;99969.13;5034963;28;20037;-70
2022/12/25 13:51:41;;;;;;;3.67;1.95;;;;;;;15.91;78.25;99963.94;5034974;28;20045;-69
2022/12/25 13:54:11;;;;;;;4.07;1.95;;;;;;;15.92;77.38;99962.06;5034994;28;20040;-69
2022/12/25 13:56:36;;;;;;;3.15;1.80;;;;;;;15.91;77.43;99958.56;5034996;28;20048;-69
2022/12/25 13:59:03;;;;;;;3.88;1.90;;;;;;;15.95;75.43;99962.44;5034614;28;20041;-70
2022/12/25 14:01:29;;;;;;;6.32;1.92;;;;;;;15.73;76.56;99961.94;5034942;28;20061;-70
2022/12/25 14:03:54;;;;;;;3.28;1.88;;;;;;;15.83;78.08;99952.59;5033752;28;20497;-69
2022/12/25 14:06:28;;;;;;;4.05;2.38;;;;;;;15.71;78.51;99955.13;5034669;28;20034;-69
2022/12/25 14:08:55;;;;;;;3.17;1.80;;;;;;;15.52;77.15;99956.84;5034484;28;20033;-70
2022/12/25 14:11:23;;;;;;;2.93;1.90;;;;;;;15.18;79.77;99957.97;5034658;28;20237;-69
2022/12/25 14:13:53;;;;;;;3.40;1.83;;;;;;;14.95;80.72;99966.47;5034565;28;20069;-69
2022/12/25 14:16:19;;;;;;;3.25;1.75;;;;;;;15.00;80.50;99955.13;5034513;28;20119;-70
2022/12/25 14:19:22;;;;;;;2.05;1.48;;;;;;;14.79;81.95;99962.34;5034198;28;20095;-69
2022/12/25 14:21:54;;;;;;;3.88;2.03;;;;;;;14.70;82.86;99960.09;5034397;28;20088;-70
2022/12/25 14:24:22;;;;;;;5.32;1.83;;;;;;;14.58;83.57;99962.56;5034477;28;20550;-70
2022/12/25 14:26:56;;;;;;;6.00;2.15;;;;;;;14.50;84.12;99952.06;5034131;28;20117;-69
2022/12/25 14:29:21;;;;;;;3.00;1.88;;;;;;;14.21;86.38;99962.09;5034232;28;20041;-68
2022/12/25 14:31:47;;;;;;;7.35;2.03;;;;;;;14.25;86.56;99963.34;5034298;28;20040;-69
2022/12/25 14:34:19;;;;;;;6.47;2.00;;;;;;;14.19;86.11;99955.28;5034259;28;20068;-68
2022/12/25 14:36:45;;;;;;;8.02;3.75;;;;;;;14.20;87.56;99952.41;5034226;28;20048;-68
2022/12/25 14:39:34;;;;;;;9.52;2.80;;;;;;;14.13;87.47;99949.72;5033948;28;20033;-68
2022/12/25 14:42:12;;;;;;;6.13;2.78;;;;;;;14.14;87.96;99950.53;5034139;28;20045;-68
2022/12/25 14:44:39;;;;;;;6.82;3.22;;;;;;;14.10;88.85;99949.31;5034192;28;20033;-68
2022/12/25 14:47:14;;;;;;;5.95;2.92;;;;;;;14.09;88.43;99947.66;5034207;28;20051;-68
2022/12/25 14:49:40;;;;;;;5.43;2.25;;;;;;;14.00;89.93;99948.88;5034335;28;20392;-68
2022/12/25 14:52:20;;;;;;;4.28;2.72;;;;;;;13.95;89.04;99948.63;5034053;28;20040;-68
2022/12/25 14:54:48;;;;;;;6.47;2.92;;;;;;;13.90;89.46;99951.13;5033549;28;20044;-68
2022/12/25 14:57:24;;;;;;;9.77;2.95;;;;;;;13.83;89.37;99965.31;5033748;28;20034;-68
2022/12/25 15:00:02;;;;;;;3.78;1.95;;;;;;;13.74;90.56;99966.50;5032734;28;20044;-69
2022/12/25 15:02:42;;;;;;;5.15;2.45;;;;;;;13.67;92.34;99970.19;5034647;28;20033;-69
2022/12/25 15:05:30;;;;;;;4.25;2.05;;;;;;;13.51;91.88;99976.72;5033769;28;20042;-68
2022/12/25 15:08:20;;;;;;;3.97;2.00;;;;;;;13.36;93.64;99989.38;5033430;28;20167;-68
2022/12/25 15:10:45;;;;;;;5.97;1.77;;;;;;;13.27;94.63;99980.69;5033634;28;20060;-68
2022/12/25 15:13:12;;;;;;;4.13;2.17;;;;;;;13.14;95.21;99985.94;5033467;28;20483;-68
2022/12/25 15:15:45;;;;;;;4.15;2.30;;;;;;;13.04;96.31;99972.91;5033383;28;20076;-68
2022/12/25 15:18:10;;;;;;;5.78;2.22;;;;;;;12.89;97.34;99977.53;5033413;28;20195;-68
2022/12/25 15:20:36;;;;;;;4.25;2.35;;;;;;;12.87;98.13;99968.88;5033460;28;20558;-69
2022/12/25 15:23:01;;;;;;;3.22;1.88;;;;;;;12.91;98.24;99965.63;5033496;28;20037;-69
2022/12/25 15:25:28;;;;;;;3.67;2.58;;;;;;;12.88;98.80;99979.38;5033156;28;20415;-69
2022/12/25 15:27:54;;;;;;;6.03;2.63;;;;;;;12.82;98.58;99987.34;5032947;28;20474;-68
2022/12/25 15:30:19;;;;;;;3.80;2.10;;;;;;;12.77;99.10;99987.91;5033456;28;20040;-68
2022/12/25 15:32:45;;;;;;;4.00;2.13;;;;;;;12.73;98.86;99984.00;5033163;28;20557;-68
2022/12/25 15:35:17;;;;;;;4.60;1.95;;;;;;;12.60;99.92;99975.88;5033373;28;20060;-69
2022/12/25 15:37:42;;;;;;;5.60;3.08;;;;;;;12.62;100.00;99973.81;5033233;28;20039;-68
2022/12/25 15:40:10;;;;;;;4.22;2.58;;;;;;;12.38;100.00;99999.91;5033487;28;20038;-68
2022/12/25 15:42:36;;;;;;;4.68;1.90;;;;;;;12.31;100.00;100001.69;5035082;28;20044;-68
2022/12/25 15:45:01;;;;;;;3.90;2.47;;;;;;;12.23;100.00;100005.31;5034072;28;20037;-68
2022/12/25 15:47:26;;;;;;;5.10;2.78;;;;;;;12.14;100.00;100016.31;5048765;28;20045;-68
2022/12/25 15:49:52;;;;;;;7.85;3.08;;;;;;;12.08;100.00;100020.56;5033079;28;20057;-68
2022/12/25 15:52:17;;;;;;;6.15;3.47;;;;;;;12.09;100.00;100003.53;5032732;28;20553;-68
2022/12/25 15:54:43;;;;;;;6.07;2.30;;;;;;;12.00;100.00;100026.03;5032822;28;20084;-68
2022/12/25 15:57:21;;;;;;;4.55;2.50;;;;;;;11.90;100.00;100018.28;5032292;28;20650;-68
2022/12/25 15:59:47;;;;;;;4.88;2.85;;;;;;;11.86;100.00;100025.00;5032611;28;20099;-68
2022/12/25 16:02:18;;;;;;;6.18;2.28;;;;;;;11.85;100.00;100028.69;5032614;28;20021;-68
2022/12/25 16:04:44;;;;;;;4.82;2.42;;;;;;;11.76;100.00;100029.78;5032105;28;20079;-68
2022/12/25 16:07:18;;;;;;;4.20;2.55;;;;;;;11.79;100.00;100018.75;5031786;28;20073;-68
2022/12/25 16:09:44;;;;;;;5.10;2.53;;;;;;;11.75;100.00;100016.66;5032386;28;20034;-68
2022/12/25 16:12:09;;;;;;;2.65;1.70;;;;;;;11.69;100.00;100019.03;5032347;28;20034;-68
2022/12/25 16:14:35;;;;;;;3.42;1.83;;;;;;;11.56;100.00;100013.53;5032353;28;20045;-68
2022/12/25 16:17:00;;;;;;;4.55;3.03;;;;;;;11.48;100.00;100008.31;5032013;28;20103;-68
2022/12/25 16:19:26;;;;;;;6.75;3.05;;;;;;;11.40;100.00;100016.38;5032462;28;20052;-68
2022/12/25 16:21:51;;;;;;;6.05;2.03;;;;;;;11.25;100.00;100021.72;5032156;28;20037;-68
2022/12/25 16:24:16;;;;;;;6.80;2.67;;;;;;;11.26;100.00;100010.03;5031950;28;20541;-68
2022/12/25 16:26:42;;;;;;;8.10;4.18;;;;;;;11.19;100.00;100002.94;5031933;28;20044;-68
2022/12/25 16:29:08;;;;;;;6.28;3.40;;;;;;;11.14;100.00;100011.50;5031780;28;20083;-68
2022/12/25 16:31:35;;;;;;;9.07;3.85;;;;;;;11.11;100.00;100001.19;5030648;28;20025;-68
2022/12/25 16:34:00;;;;;;;5.85;2.88;;;;;;;11.05;100.00;99992.09;5031845;28;20041;-68
2022/12/25 16:36:26;;;;;;;8.45;3.50;;;;;;;11.09;100.00;99977.41;5031748;28;20372;-68
2022/12/25 16:38:51;;;;;;;4.15;2.97;;;;;;;11.13;100.00;99968.00;5031555;28;20107;-68
2022/12/25 16:41:17;;;;;;;5.88;3.63;;;;;;;11.06;100.00;99967.09;5032031;28;20056;-68
2022/12/25 16:43:42;;;;;;;4.60;2.30;;;;;;;10.96;100.00;99971.06;5032052;28;20045;-68
2022/12/25 16:46:09;;;;;;;7.28;3.20;;;;;;;10.81;100.00;99973.69;5031667;28;20482;-68
2022/12/25 16:48:35;;;;;;;5.70;2.25;;;;;;;10.70;100.00;99971.47;5031398;28;20125;-68
2022/12/25 16:51:07;;;;;;;5.85;2.50;;;;;;;10.69;100.00;99977.78;5031568;28;20132;-67
2022/12/25 16:53:32;;;;;;;6.18;2.67;;;;;;;10.65;100.00;99977.34;5031672;28;20499;-67
2022/12/25 16:56:08;;;;;;;8.35;3.35;;;;;;;10.59;100.00;99981.53;5031484;28;20091;-68
2022/12/25 16:58:35;;;;;;;6.22;3.42;;;;;;;10.61;100.00;99984.00;5031418;28;20033;-68
2022/12/25 17:01:11;;;;;;;6.50;3.83;;;;;;;10.60;100.00;99979.69;5031589;28;20029;-68
2022/12/25 17:03:37;;;;;;;9.85;5.38;;;;;;;10.67;100.00;99985.97;5031407;28;20041;-68